Time;durP1;ratioP1;P1;durP2;ratioP2;P2;SDS_P1;SDS_P2;PMS_P1;PMS_P2;Temp;Humidity;BMP_temperature;BMP_pressure;BME280_temperature;BME280_humidity;BME280_pressure;Samples;Min_cycle;Max_cycle;Signal;HPM_P1;HPM_P2
2021/10/09 00:00:22;;;;;;;66.10;60.03;;;;;;;6.87;100.00;102031.94;4973897;28;20117;-82
2021/10/09 00:02:49;;;;;;;65.65;59.33;;;;;;;7.31;100.00;102031.19;4968891;28;20054;-80
2021/10/09 00:05:16;;;;;;;75.18;68.85;;;;;;;7.15;100.00;102031.06;4962476;28;20047;-80
2021/10/09 00:07:44;;;;;;;71.90;65.47;;;;;;;7.00;100.00;102026.28;4972985;28;20050;-80
2021/10/09 00:10:12;;;;;;;68.30;62.13;;;;;;;6.91;100.00;102029.81;4973247;28;20062;-78
2021/10/09 00:12:39;;;;;;;69.03;63.25;;;;;;;8.04;100.00;102031.69;4973756;28;20562;-79
2021/10/09 00:15:07;;;;;;;67.40;61.47;;;;;;;7.64;100.00;102021.69;4974026;28;20051;-80
2021/10/09 00:17:34;;;;;;;65.00;59.55;;;;;;;9.16;100.00;102017.31;4968298;28;20055;-78
2021/10/09 00:20:00;;;;;;;64.70;58.80;;;;;;;7.01;100.00;102027.94;4974991;28;20530;-79
2021/10/09 00:22:27;;;;;;;68.47;61.88;;;;;;;7.04;100.00;102024.16;4968300;28;20051;-78
2021/10/09 00:24:55;;;;;;;68.20;61.88;;;;;;;6.75;100.00;102021.75;4962712;28;20491;-79
2021/10/09 00:27:22;;;;;;;71.00;64.45;;;;;;;6.77;100.00;102025.06;4965510;28;20479;-79
2021/10/09 00:29:49;;;;;;;67.35;60.40;;;;;;;6.98;100.00;102028.25;4969541;28;20054;-79
2021/10/09 00:32:15;;;;;;;71.82;65.25;;;;;;;7.64;100.00;102026.97;4966587;28;20043;-79
2021/10/09 00:34:42;;;;;;;71.13;64.43;;;;;;;6.96;100.00;102024.94;4968930;28;20539;-79
2021/10/09 00:37:09;;;;;;;67.40;61.05;;;;;;;7.06;100.00;102023.03;4964264;28;20082;-81
2021/10/09 00:39:36;;;;;;;70.85;63.60;;;;;;;6.87;100.00;102023.19;4968578;28;20050;-79
2021/10/09 00:42:05;;;;;;;68.88;63.00;;;;;;;7.24;100.00;102020.41;4968842;28;20471;-78
2021/10/09 00:44:33;;;;;;;70.30;63.85;;;;;;;8.08;100.00;102021.66;4968125;28;20058;-77
2021/10/09 00:47:02;;;;;;;70.75;64.55;;;;;;;6.83;100.00;102013.88;4967569;28;20109;-79
2021/10/09 00:49:29;;;;;;;70.97;64.72;;;;;;;7.51;100.00;102014.16;4959783;28;20118;-79
2021/10/09 00:51:58;;;;;;;78.90;70.93;;;;;;;7.09;100.00;102020.09;4964379;28;20122;-80
2021/10/09 00:54:27;;;;;;;73.78;66.70;;;;;;;7.37;100.00;102017.34;4965804;28;20055;-78
2021/10/09 00:56:56;;;;;;;69.03;63.10;;;;;;;7.04;100.00;102010.97;4969399;28;20050;-79
2021/10/09 00:59:26;;;;;;;71.75;65.53;;;;;;;7.23;100.00;102007.31;4973457;28;20051;-78
2021/10/09 01:01:54;;;;;;;71.05;64.63;;;;;;;7.48;100.00;102006.53;4970864;28;20047;-81
2021/10/09 01:04:21;;;;;;;76.80;69.57;;;;;;;7.52;100.00;101996.50;4961853;28;20055;-78
2021/10/09 01:06:48;;;;;;;69.18;62.35;;;;;;;7.64;100.00;102002.34;4964774;28;20050;-80
2021/10/09 01:09:16;;;;;;;70.13;63.97;;;;;;;7.04;100.00;102003.84;4964408;28;20122;-79
2021/10/09 01:11:43;;;;;;;73.55;66.30;;;;;;;7.03;100.00;102002.22;4973655;28;20098;-77
2021/10/09 01:14:11;;;;;;;68.60;62.40;;;;;;;7.02;100.00;102005.84;4970241;28;20054;-79
2021/10/09 01:16:39;;;;;;;75.60;68.53;;;;;;;7.79;100.00;101998.97;4972761;28;20466;-79
2021/10/09 01:19:08;;;;;;;66.03;59.88;;;;;;;6.97;100.00;102004.63;4974061;28;20121;-77
2021/10/09 01:21:41;;;;;;;73.65;67.00;;;;;;;7.44;100.00;101999.06;4970155;28;20131;-82
2021/10/09 01:24:08;;;;;;;69.07;62.60;;;;;;;7.31;100.00;102005.59;4969495;28;20121;-81
2021/10/09 01:26:35;;;;;;;70.20;62.88;;;;;;;6.86;100.00;102005.66;4973869;28;20109;-79
2021/10/09 01:29:04;;;;;;;69.50;63.45;;;;;;;6.89;100.00;102005.38;4970782;28;20463;-79
2021/10/09 01:31:32;;;;;;;73.22;66.05;;;;;;;6.83;100.00;102004.16;4966026;28;20054;-80
2021/10/09 01:33:58;;;;;;;72.43;65.45;;;;;;;6.82;100.00;102009.59;4973025;28;20054;-79
2021/10/09 01:36:29;;;;;;;72.13;65.30;;;;;;;6.75;100.00;102004.09;4967564;28;20507;-80
2021/10/09 01:38:57;;;;;;;73.00;66.07;;;;;;;6.77;100.00;102007.38;4968857;28;20055;-79
2021/10/09 01:41:24;;;;;;;76.60;69.47;;;;;;;6.79;100.00;102001.97;4972832;28;20047;-83
2021/10/09 01:43:51;;;;;;;73.82;67.40;;;;;;;6.95;100.00;102004.75;4966788;28;20062;-79
2021/10/09 01:46:18;;;;;;;77.40;70.18;;;;;;;6.72;100.00;102009.66;4970535;28;20058;-81
2021/10/09 01:48:45;;;;;;;77.50;70.40;;;;;;;6.93;100.00;102005.88;4976578;28;20113;-79
2021/10/09 01:51:12;;;;;;;79.00;72.47;;;;;;;6.89;100.00;102011.47;4978430;28;20050;-79
2021/10/09 01:53:40;;;;;;;79.88;72.75;;;;;;;6.85;100.00;102012.75;4977154;28;20471;-79
2021/10/09 01:56:09;;;;;;;70.70;63.95;;;;;;;6.96;100.00;102013.50;4967320;28;20142;-78
2021/10/09 01:58:36;;;;;;;77.75;71.00;;;;;;;6.78;100.00;102006.44;4969374;28;20055;-80
2021/10/09 02:01:03;;;;;;;79.00;71.53;;;;;;;6.80;100.00;102009.72;5082561;23;20073;-80
2021/10/09 02:03:30;;;;;;;91.40;83.65;;;;;;;8.38;100.00;102012.38;4983852;28;20482;-80
2021/10/09 02:05:56;;;;;;;76.93;69.95;;;;;;;7.15;100.00;102020.47;4985109;28;20466;-79
2021/10/09 02:08:23;;;;;;;79.75;72.70;;;;;;;6.75;100.00;102016.47;4992535;28;20058;-82
2021/10/09 02:10:54;;;;;;;75.93;69.20;;;;;;;6.82;100.00;102012.25;4987949;28;20058;-79
2021/10/09 02:13:26;;;;;;;80.55;73.63;;;;;;;6.77;100.00;102011.84;4984875;28;20051;-79
2021/10/09 02:15:58;;;;;;;74.65;67.45;;;;;;;6.84;100.00;102012.94;4990732;28;20122;-79
2021/10/09 02:24:24;;;;;;;82.88;75.45;;;;;;;6.73;100.00;102011.31;4986393;28;20042;-79
2021/10/09 02:26:51;;;;;;;80.82;73.43;;;;;;;6.73;100.00;102018.41;4991704;28;20050;-79
2021/10/09 02:29:20;;;;;;;83.82;77.22;;;;;;;6.92;100.00;102015.63;4991815;28;20047;-79
2021/10/09 02:31:47;;;;;;;80.10;72.72;;;;;;;7.38;100.00;102018.19;4991954;28;20426;-79
2021/10/09 02:34:14;;;;;;;85.50;77.88;;;;;;;6.94;100.00;102011.03;4992269;28;20054;-80
2021/10/09 02:36:41;;;;;;;89.38;82.32;;;;;;;6.84;100.00;102019.03;4993930;28;20050;-81
2021/10/09 02:39:08;;;;;;;81.47;74.00;;;;;;;6.78;100.00;102014.34;4991537;28;20046;-79
2021/10/09 02:41:34;;;;;;;99.20;91.32;;;;;;;6.80;100.00;102006.28;4993375;28;20046;-78
2021/10/09 02:44:01;;;;;;;86.32;78.88;;;;;;;6.79;100.00;102002.81;4991649;28;20112;-81
2021/10/09 02:46:29;;;;;;;86.55;79.32;;;;;;;6.65;100.00;101998.84;4992455;28;20081;-79
2021/10/09 02:48:56;;;;;;;86.35;79.40;;;;;;;6.71;100.00;102002.72;4988065;28;20520;-79
2021/10/09 02:51:23;;;;;;;102.95;95.45;;;;;;;6.75;100.00;102005.91;4986747;28;20451;-81
2021/10/09 02:53:49;;;;;;;101.70;93.45;;;;;;;6.64;100.00;102009.56;4991033;28;20479;-80
2021/10/09 02:56:16;;;;;;;89.68;82.10;;;;;;;6.81;100.00;102014.06;4993718;28;20058;-79
2021/10/09 02:58:43;;;;;;;100.85;92.80;;;;;;;7.63;100.00;101990.13;4980306;28;20060;-81
2021/10/09 03:01:10;;;;;;;86.78;79.78;;;;;;;6.93;100.00;102004.09;4984626;28;20466;-82
2021/10/09 03:03:38;;;;;;;95.57;88.13;;;;;;;6.86;100.00;102010.94;4992094;28;20406;-79
2021/10/09 03:06:04;;;;;;;111.10;102.18;;;;;;;7.22;100.00;102005.66;4983930;28;20557;-82
2021/10/09 03:08:31;;;;;;;93.03;85.78;;;;;;;7.83;100.00;101996.84;4991156;28;20459;-79
2021/10/09 03:10:58;;;;;;;81.68;74.78;;;;;;;6.97;100.00;102004.63;4988546;28;20054;-83
2021/10/09 03:13:25;;;;;;;86.47;79.43;;;;;;;7.02;100.00;102005.00;4991759;28;20050;-82
2021/10/09 03:15:51;;;;;;;98.15;90.97;;;;;;;8.03;100.00;101992.16;4987533;28;20116;-78
2021/10/09 03:18:18;;;;;;;81.32;74.70;;;;;;;7.14;100.00;101995.03;4982242;28;20124;-79
2021/10/09 03:20:46;;;;;;;91.95;84.35;;;;;;;7.23;100.00;101994.97;4975325;28;20121;-79
2021/10/09 03:23:13;;;;;;;86.57;79.30;;;;;;;7.04;100.00;102001.22;4987466;28;20112;-79
2021/10/09 03:25:40;;;;;;;97.53;89.22;;;;;;;7.31;100.00;102008.22;4993366;28;20054;-78
2021/10/09 03:28:07;;;;;;;87.97;79.47;;;;;;;6.96;100.00;102000.31;4986125;28;20113;-79
2021/10/09 03:30:33;;;;;;;90.35;81.97;;;;;;;7.39;100.00;101998.72;4988857;28;20105;-79
2021/10/09 03:33:00;;;;;;;80.28;73.18;;;;;;;7.15;100.00;102004.63;4984624;28;20467;-77
2021/10/09 03:35:27;;;;;;;90.25;82.93;;;;;;;7.57;100.00;101995.03;4986002;28;20062;-80
2021/10/09 03:37:55;;;;;;;87.47;79.82;;;;;;;6.86;100.00;102008.31;4992404;28;20050;-79
2021/10/09 03:40:23;;;;;;;100.72;92.13;;;;;;;8.28;100.00;102001.03;4993338;28;20058;-79
2021/10/09 03:42:53;;;;;;;86.78;79.38;;;;;;;7.21;100.00;102009.31;4986089;28;20046;-79
2021/10/09 03:45:25;;;;;;;83.72;75.78;;;;;;;6.95;100.00;102004.75;4989684;28;20054;-81
2021/10/09 03:53:21;;;;;;;82.00;75.10;;;;;;;8.79;100.00;101995.78;4990461;28;20061;-80
2021/10/09 03:55:48;;;;;;;82.15;74.68;;;;;;;7.54;100.00;101984.78;4987036;28;20467;-79
2021/10/09 03:58:14;;;;;;;77.65;70.38;;;;;;;7.54;100.00;101998.00;4983137;28;20042;-79
2021/10/09 04:00:42;;;;;;;80.75;73.00;;;;;;;7.23;100.00;102008.19;4982661;28;20050;-82
2021/10/09 04:03:09;;;;;;;87.35;79.80;;;;;;;6.90;100.00;102009.69;4991572;28;20193;-79
2021/10/09 04:05:36;;;;;;;96.75;88.68;;;;;;;8.56;100.00;102003.47;4987164;28;20062;-79
2021/10/09 04:08:06;;;;;;;80.38;73.90;;;;;;;9.86;100.00;101995.56;4987460;28;20046;-81
2021/10/09 04:10:34;;;;;;;72.38;65.90;;;;;;;8.20;100.00;101999.22;4986382;28;20057;-79
2021/10/09 04:13:01;;;;;;;75.85;69.38;;;;;;;8.30;100.00;102001.72;4984923;28;20046;-81
2021/10/09 04:15:28;;;;;;;72.85;66.97;;;;;;;9.10;100.00;102006.56;4987620;28;20519;-78
2021/10/09 04:17:55;;;;;;;64.97;59.72;;;;;;;7.88;100.00;102007.78;4986725;28;20489;-79
2021/10/09 04:20:22;;;;;;;73.03;66.53;;;;;;;7.91;100.00;102004.84;4993495;28;20518;-79
2021/10/09 04:22:48;;;;;;;76.88;70.40;;;;;;;7.91;100.00;102004.00;4984515;28;20120;-78
2021/10/09 04:25:15;;;;;;;81.50;74.50;;;;;;;7.66;100.00;102011.81;4989551;28;20054;-79
2021/10/09 04:27:43;;;;;;;79.90;73.22;;;;;;;7.74;100.00;102014.47;4988778;28;20046;-82
2021/10/09 04:30:11;;;;;;;75.13;68.75;;;;;;;7.92;100.00;102014.41;4992880;28;20108;-80
2021/10/09 04:32:38;;;;;;;75.53;69.28;;;;;;;7.47;100.00;102020.72;4990975;28;20101;-83
2021/10/09 04:35:06;;;;;;;73.50;67.18;;;;;;;7.26;100.00;102022.88;4989583;28;20053;-79
2021/10/09 04:37:33;;;;;;;72.90;66.93;;;;;;;8.43;100.00;102015.34;4991690;28;20057;-82
2021/10/09 04:39:59;;;;;;;61.90;55.97;;;;;;;6.94;100.00;102026.88;4992311;28;20050;-81
2021/10/09 04:42:26;;;;;;;73.65;67.28;;;;;;;8.16;100.00;102020.84;4992183;28;20042;-78
2021/10/09 04:44:54;;;;;;;69.82;63.25;;;;;;;7.75;100.00;102031.19;4991720;28;20465;-78
2021/10/09 04:47:21;;;;;;;70.70;63.72;;;;;;;6.78;100.00;102027.56;4991911;28;20102;-79
2021/10/09 04:49:48;;;;;;;79.68;72.20;;;;;;;7.81;100.00;102030.56;4992571;28;20457;-79
2021/10/09 04:52:15;;;;;;;79.28;71.85;;;;;;;7.15;100.00;102038.97;4992061;28;20112;-81
2021/10/09 04:54:42;;;;;;;88.25;80.82;;;;;;;7.66;100.00;102048.81;4983867;28;20450;-79
2021/10/09 04:57:09;;;;;;;87.10;79.80;;;;;;;7.77;100.00;102045.91;4990424;28;20046;-79
2021/10/09 04:59:35;;;;;;;85.70;78.38;;;;;;;8.57;100.00;102039.59;4991799;28;20475;-78
2021/10/09 05:02:04;;;;;;;80.10;73.88;;;;;;;7.65;100.00;102046.31;4989889;28;20050;-79
2021/10/09 05:04:31;;;;;;;84.75;77.60;;;;;;;6.99;100.00;102047.56;4991308;28;20132;-78
2021/10/09 05:06:58;;;;;;;87.00;79.75;;;;;;;7.75;100.00;102057.66;4991777;28;20054;-80
2021/10/09 05:09:24;;;;;;;70.97;65.10;;;;;;;7.32;100.00;102057.47;4985990;28;20046;-79
2021/10/09 05:11:51;;;;;;;73.72;67.53;;;;;;;6.77;100.00;102065.50;4991530;28;20108;-79
2021/10/09 05:14:18;;;;;;;80.45;73.93;;;;;;;7.09;100.00;102067.66;4990206;28;20478;-78
2021/10/09 05:16:44;;;;;;;80.93;74.00;;;;;;;7.21;100.00;102065.63;4992208;28;20054;-79
2021/10/09 05:19:13;;;;;;;82.22;75.97;;;;;;;8.31;100.00;102074.84;4991485;28;20454;-77
2021/10/09 05:21:39;;;;;;;73.63;67.70;;;;;;;7.96;100.00;102063.41;4978486;28;20042;-78
2021/10/09 05:24:07;;;;;;;72.95;67.25;;;;;;;7.77;100.00;102067.06;4995746;28;20050;-79
2021/10/09 05:26:36;;;;;;;70.20;64.03;;;;;;;7.36;100.00;102071.22;4996523;28;20053;-78
2021/10/09 05:29:03;;;;;;;71.32;64.72;;;;;;;7.17;100.00;102068.72;4990206;28;20063;-82
2021/10/09 05:31:31;;;;;;;67.45;61.78;;;;;;;7.23;100.00;102068.97;4989688;28;20494;-78
2021/10/09 05:33:58;;;;;;;66.30;60.53;;;;;;;7.13;100.00;102070.00;4991311;28;20112;-81
2021/10/09 05:36:27;;;;;;;71.93;65.80;;;;;;;7.21;100.00;102076.19;4992850;28;20054;-83
2021/10/09 05:38:54;;;;;;;71.80;65.78;;;;;;;8.17;100.00;102076.28;4995857;28;20597;-81
2021/10/09 05:41:21;;;;;;;63.95;58.33;;;;;;;7.43;100.00;102082.00;4994678;28;20085;-79
2021/10/09 05:43:48;;;;;;;68.25;62.50;;;;;;;7.16;100.00;102081.09;4995684;28;20136;-79
2021/10/09 05:46:17;;;;;;;71.30;65.28;;;;;;;9.16;100.00;102088.06;4993612;28;20093;-80
2021/10/09 05:48:43;;;;;;;63.33;57.65;;;;;;;7.31;100.00;102091.97;4994684;28;20042;-79
2021/10/09 05:51:14;;;;;;;68.90;62.95;;;;;;;6.83;100.00;102087.84;4995188;28;20101;-80
2021/10/09 05:53:53;;;;;;;68.45;62.60;;;;;;;6.60;100.00;102092.69;4994869;28;20077;-79
2021/10/09 05:56:27;;;;;;;69.07;63.35;;;;;;;8.06;100.00;102095.06;4988785;28;20050;-80
2021/10/09 05:59:02;;;;;;;68.28;62.33;;;;;;;7.28;100.00;102105.50;4994603;28;20088;-80
2021/10/09 06:43:42;;;;;;;72.10;65.88;;;;;;;6.84;100.00;102132.59;4990593;28;20521;-79
2021/10/09 06:46:36;;;;;;;73.05;66.03;;;;;;;6.93;100.00;102133.53;4992647;28;20050;-79
2021/10/09 06:49:22;;;;;;;74.90;68.20;;;;;;;6.89;100.00;102146.19;4992049;28;20088;-79
2021/10/09 07:00:05;;;;;;;70.65;63.97;;;;;;;7.12;100.00;102151.09;4993550;28;20443;-79
2021/10/09 07:02:37;;;;;;;72.57;66.43;;;;;;;6.85;100.00;102149.28;4990911;28;20054;-79
2021/10/09 07:05:05;;;;;;;;;;;;;;;6.79;100.00;102142.78;4993488;28;20069;-80
2021/10/09 07:07:35;;;;;;;71.45;64.55;;;;;;;6.74;100.00;102154.75;4993013;28;19922;-79
2021/10/09 07:10:01;;;;;;;76.53;69.85;;;;;;;6.94;100.00;102161.59;4993442;28;20054;-84
2021/10/09 07:12:28;;;;;;;78.82;71.82;;;;;;;7.54;100.00;102164.56;4992155;28;20042;-80
2021/10/09 07:14:55;;;;;;;73.65;67.18;;;;;;;7.08;100.00;102162.91;4991647;28;20054;-80
2021/10/09 07:17:23;;;;;;;71.75;64.75;;;;;;;6.91;100.00;102167.19;4993176;28;20046;-80
2021/10/09 07:19:50;;;;;;;69.07;62.83;;;;;;;7.26;100.00;102174.38;4993038;28;20395;-82
2021/10/09 07:22:17;;;;;;;72.75;65.85;;;;;;;8.34;100.00;102177.78;4993183;28;20038;-81
2021/10/09 07:24:44;;;;;;;66.53;60.40;;;;;;;7.55;100.00;102173.34;4992725;28;20050;-83
2021/10/09 07:27:11;;;;;;;70.03;63.88;;;;;;;7.50;100.00;102168.50;4991692;28;20046;-80
2021/10/09 07:29:38;;;;;;;68.65;62.38;;;;;;;7.45;100.00;102167.28;4988136;28;20050;-80
2021/10/09 07:32:06;;;;;;;74.55;67.40;;;;;;;7.42;100.00;102168.41;4992478;28;20042;-79
2021/10/09 07:34:34;;;;;;;70.53;64.05;;;;;;;7.86;100.00;102171.13;4992460;28;20042;-79
2021/10/09 07:37:01;;;;;;;72.40;66.57;;;;;;;9.28;100.00;102155.69;4991241;28;20046;-79
2021/10/09 07:39:27;;;;;;;70.00;63.72;;;;;;;8.67;100.00;102159.47;4992633;28;20053;-80
2021/10/09 07:41:54;;;;;;;74.18;67.68;;;;;;;7.77;100.00;102167.56;4991360;28;20055;-79
2021/10/09 07:44:22;;;;;;;73.35;66.28;;;;;;;9.05;100.00;102157.31;4990643;28;20490;-81
2021/10/09 07:46:50;;;;;;;62.45;57.05;;;;;;;8.96;100.00;102148.50;4992487;28;20050;-80
2021/10/09 07:49:16;;;;;;;65.93;60.38;;;;;;;7.63;100.00;102157.56;4986735;28;20057;-80
2021/10/09 07:51:46;;;;;;;75.25;68.20;;;;;;;7.86;100.00;102160.53;4992181;28;20049;-81
2021/10/09 07:54:13;;;;;;;76.15;69.30;;;;;;;7.97;100.00;102164.78;4991289;28;20340;-83
2021/10/09 07:56:40;;;;;;;75.90;69.30;;;;;;;7.81;100.00;102168.13;4991934;28;20085;-80
2021/10/09 07:59:07;;;;;;;81.07;73.53;;;;;;;7.44;100.00;102162.97;4990318;28;20046;-85
2021/10/09 08:01:34;;;;;;;77.28;70.28;;;;;;;7.47;100.00;102176.72;4991860;28;20046;-80
2021/10/09 08:04:01;;;;;;;75.57;68.63;;;;;;;8.04;100.00;102179.03;4992146;28;20051;-82
2021/10/09 08:06:28;;;;;;;73.55;67.10;;;;;;;7.52;100.00;102169.16;4990282;28;20466;-79
2021/10/09 08:08:56;;;;;;;69.65;63.47;;;;;;;8.26;100.00;102173.28;4991229;28;20050;-80
2021/10/09 08:11:24;;;;;;;62.13;56.38;;;;;;;8.62;100.00;102162.59;4992218;28;20046;-82
2021/10/09 08:13:51;;;;;;;55.83;50.60;;;;;;;9.00;100.00;102157.78;4991792;28;20133;-81
2021/10/09 08:16:18;;;;;;;53.90;48.40;;;;;;;9.59;100.00;102157.75;4991679;28;20042;-79
2021/10/09 08:18:45;;;;;;;54.92;50.03;;;;;;;8.23;100.00;102157.69;4990880;28;20038;-80
2021/10/09 08:21:12;;;;;;;57.97;52.80;;;;;;;9.25;100.00;102156.03;4990689;28;20050;-81
2021/10/09 08:23:42;;;;;;;55.95;50.67;;;;;;;8.44;100.00;102162.66;4991501;28;20053;-79
2021/10/09 08:37:20;;;;;;;49.58;44.60;;;;;;;9.69;100.00;102160.25;4991862;28;20076;-79
2021/10/09 08:39:46;;;;;;;57.03;50.08;;;;;;;8.66;100.00;102155.16;4989079;28;20455;-79
2021/10/09 08:42:15;;;;;;;56.70;51.38;;;;;;;8.56;100.00;102157.06;4990946;28;20117;-79
2021/10/09 08:44:42;;;;;;;62.13;56.17;;;;;;;8.33;100.00;102167.34;4990129;28;20046;-79
2021/10/09 08:47:12;;;;;;;65.40;59.08;;;;;;;8.31;100.00;102161.38;4988164;28;20061;-80
2021/10/09 08:49:39;;;;;;;59.10;54.17;;;;;;;9.13;100.00;102166.09;4991046;28;20065;-80
2021/10/09 08:52:06;;;;;;;55.63;50.50;;;;;;;9.10;100.00;102163.78;4987404;28;20057;-82
2021/10/09 08:54:37;;;;;;;57.78;52.35;;;;;;;9.07;100.00;102161.44;4988806;28;20069;-81
2021/10/09 08:57:14;;;;;;;49.75;45.35;;;;;;;10.38;100.00;102166.03;4988203;28;20046;-79
2021/10/09 08:59:51;;;;;;;45.28;41.30;;;;;;;11.38;100.00;102156.50;4989701;28;20054;-81
2021/10/09 09:02:22;;;;;;;47.33;43.00;;;;;;;9.25;100.00;102157.84;4985554;28;20058;-78
2021/10/09 09:05:07;;;;;;;47.97;43.47;;;;;;;9.57;100.00;102165.88;4990063;28;20038;-80
2021/10/09 09:07:50;;;;;;;50.03;44.78;;;;;;;9.39;100.00;102171.31;4986657;28;20054;-81
2021/10/09 09:27:16;;;;;;;50.72;45.35;;;;;;;9.42;100.00;102164.84;4989483;28;20538;-79
2021/10/09 09:32:49;;;;;;;47.85;43.20;;;;;;;10.25;100.00;102153.25;4992140;28;20053;-79
2021/10/09 09:40:58;;;;;;;44.92;40.65;;;;;;;11.04;100.00;102150.69;4998362;28;20088;-79
2021/10/09 09:43:39;;;;;;;47.88;43.42;;;;;;;9.39;100.00;102167.84;4991897;28;20046;-77
2021/10/09 09:46:14;;;;;;;48.00;44.10;;;;;;;9.58;100.00;102166.69;4999496;28;20115;-79
2021/10/09 09:48:44;;;;;;;42.80;39.35;;;;;;;10.34;100.00;102168.19;4988250;28;20428;-80
2021/10/09 09:51:12;;;;;;;42.22;38.17;;;;;;;10.74;100.00;102166.44;4985566;28;20072;-80
2021/10/09 09:53:40;;;;;;;39.20;35.65;;;;;;;10.99;100.00;102168.00;4991437;28;20483;-80
2021/10/09 09:56:08;;;;;;;44.78;40.75;;;;;;;8.90;100.00;102173.00;4990323;28;20046;-84
2021/10/09 09:58:37;;;;;;;44.05;39.60;;;;;;;10.22;100.00;102175.66;4992903;28;20050;-81
2021/10/09 10:01:07;;;;;;;44.72;40.17;;;;;;;9.71;100.00;102168.88;4991675;28;20140;-78
2021/10/09 10:03:35;;;;;;;43.25;39.17;;;;;;;10.84;100.00;102176.88;4994464;28;20116;-79
2021/10/09 10:06:04;;;;;;;42.67;38.42;;;;;;;10.13;100.00;102171.34;4986446;28;20055;-79
2021/10/09 10:08:31;;;;;;;54.90;48.20;;;;;;;9.29;100.00;102169.78;4993449;28;20069;-79
2021/10/09 10:11:01;;;;;;;49.58;45.13;;;;;;;9.35;100.00;102163.84;4992497;28;20554;-78
2021/10/09 10:13:31;;;;;;;46.45;41.90;;;;;;;10.83;100.00;102162.72;4986070;28;20121;-79
2021/10/09 10:15:58;;;;;;;44.85;40.55;;;;;;;9.69;100.00;102162.91;4994845;28;20479;-80
2021/10/09 10:18:54;;;;;;;41.17;37.00;;;;;;;11.61;100.00;102161.81;4992148;28;20050;-80
2021/10/09 10:21:49;;;;;;;41.90;37.92;;;;;;;10.28;100.00;102164.38;4991648;28;20442;-77
2021/10/09 10:24:54;;;;;;;43.42;39.25;;;;;;;10.30;100.00;102170.38;4991343;28;20069;-80
2021/10/09 10:27:40;;;;;;;44.05;39.42;;;;;;;9.47;100.00;102178.47;4994107;28;20093;-79
2021/10/09 10:30:25;;;;;;;48.65;43.40;;;;;;;9.31;100.00;102173.94;4984598;28;20065;-79
2021/10/09 10:33:38;;;;;;;46.05;41.63;;;;;;;9.47;100.00;102177.63;4985442;28;20074;-81
2021/10/09 10:36:05;;;;;;;45.30;41.15;;;;;;;9.47;100.00;102186.44;4992597;28;20050;-82
2021/10/09 10:38:54;;;;;;;50.90;45.42;;;;;;;9.17;100.00;102179.88;4994587;28;20057;-80
2021/10/09 10:41:39;;;;;;;52.17;46.97;;;;;;;9.43;100.00;102176.28;4995258;28;20050;-80
2021/10/09 10:44:08;;;;;;;48.20;43.78;;;;;;;10.58;100.00;102177.94;4994936;28;20047;-79
2021/10/09 10:46:41;;;;;;;54.05;48.28;;;;;;;9.75;100.00;102180.81;4994429;28;20050;-79
2021/10/09 10:49:14;;;;;;;49.08;43.53;;;;;;;10.07;100.00;102174.66;4993454;28;20054;-79
2021/10/09 10:51:53;;;;;;;53.88;43.88;;;;;;;9.97;100.00;102181.97;4994105;28;20042;-79
2021/10/09 10:57:29;;;;;;;47.13;42.72;;;;;;;9.73;100.00;102183.63;4992358;28;20053;-82
2021/10/09 11:00:13;;;;;;;63.15;49.83;;;;;;;9.29;100.00;102186.53;4993821;28;20054;-79
2021/10/09 11:02:48;;;;;;;54.05;47.25;;;;;;;9.34;100.00;102191.34;4992696;28;20105;-79
2021/10/09 11:05:16;;;;;;;71.65;49.10;;;;;;;9.48;100.00;102184.59;4994721;28;20053;-79
2021/10/09 11:07:44;;;;;;;48.72;43.70;;;;;;;10.23;100.00;102181.81;4987638;28;20057;-81
2021/10/09 11:10:14;;;;;;;43.53;39.55;;;;;;;10.30;100.00;102177.50;4993413;28;20050;-79
2021/10/09 11:12:43;;;;;;;53.83;46.80;;;;;;;9.33;100.00;102179.91;4988269;28;20073;-80
2021/10/09 11:15:22;;;;;;;49.92;45.22;;;;;;;10.15;100.00;102177.31;4993851;28;20050;-81
2021/10/09 11:17:57;;;;;;;47.95;43.17;;;;;;;9.78;100.00;102188.47;4985954;28;20054;-80
2021/10/09 11:20:26;;;;;;;60.30;45.08;;;;;;;9.52;100.00;102178.78;4983734;28;20406;-79
2021/10/09 11:22:55;;;;;;;49.55;44.30;;;;;;;9.80;100.00;102182.00;4989691;28;20534;-77
2021/10/09 11:25:26;;;;;;;53.50;47.90;;;;;;;9.48;100.00;102174.81;4992433;28;20050;-78
2021/10/09 11:27:54;;;;;;;60.50;53.83;;;;;;;9.25;100.00;102168.47;4988470;28;20463;-78
2021/10/09 11:30:21;;;;;;;60.45;52.88;;;;;;;9.29;100.00;102170.63;4991807;28;20089;-79
2021/10/09 11:32:48;;;;;;;69.15;52.90;;;;;;;9.32;100.00;102164.16;4991451;28;20055;-81
2021/10/09 11:35:28;;;;;;;49.88;44.70;;;;;;;9.76;100.00;102170.03;4992623;28;20046;-77
2021/10/09 11:37:54;;;;;;;51.90;46.35;;;;;;;9.94;100.00;102169.06;4992031;28;20042;-80
2021/10/09 11:40:34;;;;;;;84.43;53.17;;;;;;;9.52;100.00;102168.19;4991906;28;20141;-79
2021/10/09 11:43:11;;;;;;;44.95;40.55;;;;;;;10.82;100.00;102160.25;4990412;28;20657;-80
2021/10/09 11:54:06;;;;;;;50.80;46.15;;;;;;;9.53;100.00;102169.00;4991628;28;20058;-79
2021/10/09 11:56:42;;;;;;;78.30;54.20;;;;;;;10.35;100.00;102164.56;4992319;28;20104;-79
2021/10/09 11:59:10;;;;;;;59.50;47.08;;;;;;;10.40;100.00;102170.19;4991591;28;20061;-79
2021/10/09 12:01:43;;;;;;;49.50;44.65;;;;;;;10.24;100.00;102164.88;4991139;28;20057;-78
2021/10/09 12:04:18;;;;;;;60.63;49.28;;;;;;;9.60;100.00;102167.38;4990557;28;20038;-81
2021/10/09 12:06:47;;;;;;;63.95;48.55;;;;;;;9.42;100.00;102167.50;4988094;28;20046;-80
2021/10/09 12:09:17;;;;;;;49.55;44.40;;;;;;;10.41;100.00;102171.00;4991149;28;20058;-79
2021/10/09 12:11:45;;;;;;;48.67;40.47;;;;;;;10.95;100.00;102156.06;4990366;28;20142;-77
2021/10/09 12:14:13;;;;;;;76.47;49.22;;;;;;;10.32;100.00;102160.41;4991168;28;20089;-79
2021/10/09 12:16:42;;;;;;;85.75;49.45;;;;;;;10.08;100.00;102155.13;4989704;28;20120;-79
2021/10/09 12:19:10;;;;;;;87.60;53.40;;;;;;;9.71;100.00;102164.38;4990387;28;20054;-78
2021/10/09 12:21:39;;;;;;;53.50;45.67;;;;;;;9.64;100.00;102153.59;4991377;28;20042;-80
2021/10/09 12:24:17;;;;;;;54.75;45.95;;;;;;;9.53;100.00;102153.94;4990218;28;20463;-78
2021/10/09 12:27:02;;;;;;;51.47;45.95;;;;;;;10.08;100.00;102165.72;4994319;28;20043;-81
2021/10/09 12:29:29;;;;;;;54.33;43.67;;;;;;;9.76;100.00;102159.41;4989514;28;20046;-80
2021/10/09 12:32:13;;;;;;;44.63;40.25;;;;;;;10.58;100.00;102166.50;4990951;28;20047;-78
2021/10/09 12:34:40;;;;;;;69.68;47.70;;;;;;;9.64;100.00;102174.81;4988648;28;20050;-82
2021/10/09 12:37:12;;;;;;;64.13;46.92;;;;;;;9.72;100.00;102174.03;4986389;28;20055;-78
2021/10/09 12:39:39;;;;;;;49.80;42.20;;;;;;;10.04;100.00;102175.81;4990279;28;20050;-78
2021/10/09 12:42:08;;;;;;;66.63;46.33;;;;;;;9.54;100.00;102170.69;4989979;28;20046;-79
2021/10/09 12:44:35;;;;;;;74.80;45.38;;;;;;;9.42;100.00;102169.34;4990231;28;20069;-80
2021/10/09 12:47:02;;;;;;;53.35;42.92;;;;;;;10.05;100.00;102168.72;4992327;28;20530;-79
2021/10/09 12:49:28;;;;;;;51.55;40.17;;;;;;;10.18;100.00;102168.19;4992941;28;20061;-78
2021/10/09 12:51:55;;;;;;;51.20;41.83;;;;;;;9.72;100.00;102165.22;4989710;28;20042;-79
2021/10/09 12:54:25;;;;;;;102.40;53.13;;;;;;;9.49;100.00;102157.06;4978594;28;20539;-80
2021/10/09 12:56:52;;;;;;;76.20;45.90;;;;;;;10.04;100.00;102167.03;4988537;28;20486;-81
2021/10/09 12:59:22;;;;;;;156.32;60.80;;;;;;;9.66;100.00;102158.75;4991823;28;20062;-81
2021/10/09 13:01:49;;;;;;;90.32;53.03;;;;;;;9.54;100.00;102147.63;4992206;28;20565;-78
2021/10/09 13:04:15;;;;;;;54.95;44.40;;;;;;;10.11;100.00;102149.47;4989322;28;20058;-78
2021/10/09 13:06:42;;;;;;;98.93;54.60;;;;;;;9.47;100.00;102159.06;4997038;28;20065;-79
2021/10/09 13:09:11;;;;;;;97.43;57.53;;;;;;;9.46;100.00;102160.88;4992521;28;20050;-79